createdAt,value
2023-04-02T00:01:47.092Z,54.80
2023-04-02T00:04:16.207Z,50.70
2023-04-02T00:06:46.021Z,48.93
2023-04-02T00:09:15.323Z,50.17
2023-04-02T00:11:41.818Z,41.17
2023-04-02T00:14:17.412Z,47.92
2023-04-02T00:16:44.091Z,42.23
2023-04-02T00:19:15.562Z,38.40
2023-04-02T00:21:42.107Z,39.23
2023-04-02T00:24:14.700Z,39.73
2023-04-02T00:26:44.908Z,38.80
2023-04-02T00:29:11.962Z,39.77
2023-04-02T00:31:39.382Z,38.45
2023-04-02T00:34:06.985Z,38.53
2023-04-02T00:36:34.335Z,39.57
2023-04-02T00:39:02.066Z,37.72
2023-04-02T00:41:30.820Z,38.17
2023-04-02T00:43:58.049Z,41.20
2023-04-02T00:46:32.484Z,40.73
2023-04-02T00:49:13.363Z,39.10
2023-04-02T00:51:41.981Z,40.57
2023-04-02T00:54:10.129Z,41.53
2023-04-02T00:56:41.187Z,40.67
2023-04-02T00:59:22.931Z,39.83
2023-04-02T01:01:54.445Z,36.53
2023-04-02T01:04:34.781Z,40.00
2023-04-02T01:07:05.310Z,37.87
2023-04-02T01:09:44.670Z,43.20
2023-04-02T01:12:23.304Z,42.17
2023-04-02T01:14:59.184Z,42.83
2023-04-02T01:17:48.934Z,46.43
2023-04-02T01:20:25.520Z,43.53
2023-04-02T01:22:55.534Z,45.80
2023-04-02T01:25:26.932Z,43.87
2023-04-02T01:28:04.992Z,46.90
2023-04-02T01:30:32.766Z,48.10
2023-04-02T01:32:59.310Z,50.67
2023-04-02T01:35:26.134Z,47.92
2023-04-02T01:38:00.522Z,47.77
2023-04-02T01:40:36.301Z,44.33
2023-04-02T01:43:08.946Z,43.10
2023-04-02T01:45:35.654Z,43.50
2023-04-02T01:48:06.391Z,47.13
2023-04-02T01:50:39.411Z,45.90
2023-04-02T01:53:07.378Z,42.03
2023-04-02T01:55:41.382Z,50.13
2023-04-02T01:58:08.945Z,48.83
2023-04-02T02:00:36.336Z,46.37
2023-04-02T02:03:03.168Z,41.37
2023-04-02T02:05:29.872Z,47.17
2023-04-02T02:07:56.776Z,45.80
2023-04-02T02:10:27.474Z,45.27
2023-04-02T02:12:53.999Z,47.10
2023-04-02T02:15:21.678Z,45.57
2023-04-02T02:17:48.643Z,43.97
2023-04-02T02:20:15.303Z,39.83
2023-04-02T02:22:48.806Z,46.10
2023-04-02T02:25:19.242Z,44.13
2023-04-02T02:28:06.082Z,44.27
2023-04-02T02:30:32.779Z,41.77
2023-04-02T02:33:10.173Z,39.17
2023-04-02T02:35:50.047Z,37.33
2023-04-02T02:38:16.580Z,42.60
2023-04-02T02:40:43.814Z,35.20
2023-04-02T02:43:10.590Z,38.13
2023-04-02T02:45:38.096Z,33.07
2023-04-02T02:48:05.561Z,32.87
2023-04-02T02:50:32.301Z,30.93
2023-04-02T02:52:59.397Z,33.70
2023-04-02T02:55:34.504Z,32.20
2023-04-02T02:58:07.115Z,31.63
2023-04-02T03:00:33.860Z,31.63
2023-04-02T03:03:00.556Z,31.57
2023-04-02T03:05:27.996Z,32.80
2023-04-02T03:07:55.621Z,31.73
2023-04-02T03:10:22.815Z,33.90
2023-04-02T03:12:51.510Z,29.63
2023-04-02T03:15:40.320Z,30.97
2023-04-02T03:18:12.125Z,31.97
2023-04-02T03:20:40.809Z,32.80
2023-04-02T03:23:09.193Z,30.50
2023-04-02T03:25:40.577Z,28.77
2023-04-02T03:28:08.143Z,32.57
2023-04-02T03:30:34.662Z,27.30
2023-04-02T03:33:02.652Z,28.03
2023-04-02T03:35:32.339Z,31.20
2023-04-02T03:38:00.503Z,25.53
2023-04-02T03:40:32.203Z,24.07
2023-04-02T03:43:03.426Z,25.63
2023-04-02T03:45:32.563Z,27.20
2023-04-02T03:47:59.191Z,27.80
2023-04-02T03:50:27.630Z,30.47
2023-04-02T03:52:54.187Z,28.80
2023-04-02T03:55:30.723Z,28.47
2023-04-02T03:58:16.198Z,27.90
2023-04-02T04:00:48.836Z,28.50
2023-04-02T04:03:16.444Z,27.13
2023-04-02T04:05:48.813Z,26.77
2023-04-02T04:08:16.955Z,27.97
2023-04-02T04:10:44.081Z,28.47
2023-04-02T04:13:15.233Z,31.73
2023-04-02T04:15:48.524Z,29.47
2023-04-02T04:18:34.943Z,29.10
2023-04-02T04:21:02.245Z,28.23
2023-04-02T04:23:30.653Z,27.17
2023-04-02T04:26:02.181Z,27.40
2023-04-02T04:28:38.399Z,27.80
2023-04-02T04:31:21.551Z,25.40
2023-04-02T04:33:50.719Z,25.03
2023-04-02T04:36:28.743Z,24.90
2023-04-02T04:38:59.553Z,26.97
2023-04-02T04:41:30.550Z,24.13
2023-04-02T04:44:01.691Z,30.57
2023-04-02T04:46:31.686Z,31.00
2023-04-02T04:49:00.812Z,25.83
2023-04-02T04:51:28.469Z,29.67
2023-04-02T04:53:55.895Z,35.43
2023-04-02T04:56:24.137Z,33.13
2023-04-02T04:58:52.888Z,31.63
2023-04-02T05:01:24.547Z,30.93
2023-04-02T05:03:55.885Z,34.13
2023-04-02T05:06:39.564Z,32.70
2023-04-02T05:09:22.723Z,38.03
2023-04-02T05:11:57.606Z,37.23
2023-04-02T05:14:26.263Z,35.47
2023-04-02T05:17:01.204Z,43.47
2023-04-02T05:19:42.420Z,35.40
2023-04-02T05:22:12.022Z,27.80
2023-04-02T05:24:38.598Z,17.93
2023-04-02T05:27:20.238Z,17.17
2023-04-02T05:29:47.714Z,18.43
2023-04-02T05:32:16.351Z,20.33
2023-04-02T05:34:42.825Z,16.13
2023-04-02T05:37:19.773Z,16.77
2023-04-02T05:39:52.568Z,13.00
2023-04-02T05:42:21.344Z,11.83
2023-04-02T05:45:06.576Z,8.00
2023-04-02T05:47:33.233Z,6.23
2023-04-02T05:50:12.821Z,4.97
2023-04-02T05:52:50.560Z,4.17
2023-04-02T05:55:17.060Z,4.47
2023-04-02T05:57:56.714Z,5.57
2023-04-02T06:00:38.626Z,4.47
2023-04-02T06:03:07.655Z,5.17
2023-04-02T06:05:36.255Z,6.57
2023-04-02T06:08:11.402Z,4.83
2023-04-02T06:10:42.469Z,2.60
2023-04-02T06:13:08.999Z,2.97
2023-04-02T06:15:36.490Z,4.53
2023-04-02T06:18:06.941Z,5.03
2023-04-02T06:20:33.432Z,5.37
2023-04-02T06:23:01.608Z,7.17
2023-04-02T06:25:28.987Z,7.40
2023-04-02T06:27:55.682Z,7.00
2023-04-02T06:30:26.233Z,7.70
2023-04-02T06:32:52.825Z,3.97
2023-04-02T06:35:19.578Z,3.17
2023-04-02T06:37:46.558Z,3.50
2023-04-02T06:40:36.574Z,2.63
2023-04-02T06:43:05.591Z,1.90
2023-04-02T06:45:33.542Z,2.50
2023-04-02T06:48:00.646Z,3.40
2023-04-02T06:50:31.508Z,1.10
2023-04-02T06:53:06.578Z,5.20
2023-04-02T06:55:35.645Z,1.40
2023-04-02T06:58:02.333Z,3.20
2023-04-02T07:00:33.084Z,2.57
2023-04-02T07:02:59.747Z,2.60
2023-04-02T07:05:27.186Z,2.40
2023-04-02T07:07:54.080Z,3.33
2023-04-02T07:10:20.654Z,3.33
2023-04-02T07:12:47.334Z,3.73
2023-04-02T07:15:17.200Z,4.63
2023-04-02T07:17:43.984Z,4.00
2023-04-02T07:20:30.964Z,2.60
2023-04-02T07:22:57.561Z,2.80
2023-04-02T07:25:24.581Z,3.30
2023-04-02T07:27:51.511Z,4.83
2023-04-02T07:30:18.268Z,5.87
2023-04-02T07:32:44.998Z,2.93
2023-04-02T07:35:11.584Z,1.43
2023-04-02T07:37:39.005Z,1.00
2023-04-02T07:40:06.545Z,1.00
2023-04-02T07:42:33.033Z,0.90
2023-04-02T07:44:59.532Z,0.97
2023-04-02T07:47:26.681Z,1.00
2023-04-02T07:49:54.659Z,1.97
2023-04-02T07:52:22.167Z,2.30
2023-04-02T07:54:48.705Z,1.53
2023-04-02T07:57:15.366Z,0.90
2023-04-02T07:59:41.920Z,2.13
2023-04-02T08:02:16.684Z,2.37
2023-04-02T08:04:43.265Z,2.90
2023-04-02T08:07:09.729Z,2.13
2023-04-02T08:09:36.239Z,6.90
2023-04-02T08:12:02.737Z,4.03
2023-04-02T08:14:29.214Z,3.10
2023-04-02T08:16:56.149Z,4.67
2023-04-02T08:19:23.460Z,2.83
2023-04-02T08:21:51.756Z,3.20
2023-04-02T08:24:19.412Z,3.63
2023-04-02T08:26:46.449Z,2.67
2023-04-02T08:29:13.014Z,4.13
2023-04-02T08:31:39.515Z,3.17
2023-04-02T08:34:06.073Z,3.27
2023-04-02T08:36:39.088Z,5.63
2023-04-02T08:39:05.955Z,3.63
2023-04-02T08:41:36.505Z,2.70
2023-04-02T08:44:21.885Z,4.07
2023-04-02T08:46:52.295Z,1.73
2023-04-02T08:49:20.278Z,1.97
2023-04-02T08:51:46.829Z,4.33
2023-04-02T08:54:13.759Z,3.23
2023-04-02T08:56:41.637Z,2.57
2023-04-02T08:59:27.691Z,2.97
2023-04-02T09:01:54.309Z,2.17
2023-04-02T09:04:21.589Z,1.97
2023-04-02T09:06:49.909Z,2.20
2023-04-02T09:09:16.843Z,3.30
2023-04-02T09:11:53.823Z,3.53
2023-04-02T09:14:31.027Z,3.40
2023-04-02T09:17:02.135Z,3.63
2023-04-02T09:19:29.323Z,3.03
2023-04-02T09:21:58.510Z,3.07
2023-04-02T09:24:25.048Z,3.80
2023-04-02T09:26:51.686Z,3.23
2023-04-02T09:29:44.875Z,3.70
2023-04-02T09:32:19.397Z,3.07
2023-04-02T09:34:46.209Z,5.30
2023-04-02T09:37:15.740Z,5.00
2023-04-02T09:39:42.469Z,3.93
2023-04-02T09:42:26.465Z,4.57
2023-04-02T09:44:53.040Z,5.60
2023-04-02T09:47:26.389Z,7.13
2023-04-02T09:49:53.049Z,7.70
2023-04-02T09:52:29.817Z,8.67
2023-04-02T09:55:17.136Z,9.07
2023-04-02T09:57:43.726Z,8.57
2023-04-02T10:00:30.572Z,9.07
2023-04-02T10:03:18.047Z,10.80
2023-04-02T10:05:44.804Z,10.97
2023-04-02T10:08:29.665Z,9.17
2023-04-02T10:10:57.081Z,8.03
2023-04-02T10:13:41.104Z,9.37
2023-04-02T10:16:09.692Z,8.93
2023-04-02T10:18:39.925Z,9.73
2023-04-02T10:21:06.611Z,10.43
2023-04-02T10:23:33.219Z,7.20
2023-04-02T10:25:59.686Z,5.40
2023-04-02T10:28:32.869Z,7.17
2023-04-02T10:31:08.760Z,6.27
2023-04-02T10:33:38.646Z,6.37
2023-04-02T10:36:24.568Z,9.10
2023-04-02T10:39:00.166Z,8.03
2023-04-02T10:41:29.334Z,6.53
2023-04-02T10:44:19.367Z,7.50
2023-04-02T10:47:05.102Z,6.73
2023-04-02T10:49:57.901Z,9.20
2023-04-02T10:52:26.863Z,8.57
2023-04-02T10:54:57.450Z,12.27
2023-04-02T10:57:40.785Z,12.17
2023-04-02T11:00:10.679Z,9.97
2023-04-02T11:02:56.358Z,10.60
2023-04-02T11:05:44.154Z,11.17
2023-04-02T11:08:19.998Z,11.67
2023-04-02T11:10:51.676Z,11.97
2023-04-02T11:13:26.279Z,11.57
2023-04-02T11:15:53.856Z,14.27
2023-04-02T11:18:24.770Z,12.77
2023-04-02T11:20:51.386Z,16.13
2023-04-02T11:23:18.591Z,15.17
2023-04-02T11:25:45.401Z,14.90
2023-04-02T11:28:14.421Z,12.40
2023-04-02T11:30:41.387Z,16.23
2023-04-02T11:33:35.902Z,15.57
2023-04-02T11:36:03.618Z,13.03
2023-04-02T11:38:46.549Z,13.27
2023-04-02T11:41:13.166Z,14.13
2023-04-02T11:43:41.536Z,14.77
2023-04-02T11:46:17.226Z,12.77
2023-04-02T11:48:44.887Z,11.20
2023-04-02T11:51:21.452Z,10.53
2023-04-02T11:53:51.917Z,11.10
2023-04-02T11:56:37.794Z,11.97
2023-04-02T11:59:23.192Z,10.50
2023-04-02T12:01:54.876Z,37.80
2023-04-02T12:04:21.481Z,46.20
2023-04-02T12:06:51.460Z,14.80
2023-04-02T12:09:18.900Z,12.23
2023-04-02T12:11:45.433Z,10.13
2023-04-02T12:14:30.759Z,17.73
2023-04-02T12:16:57.515Z,18.23
2023-04-02T12:19:24.332Z,17.97
2023-04-02T12:21:51.388Z,19.77
2023-04-02T12:24:18.487Z,14.10
2023-04-02T12:26:46.551Z,10.40
2023-04-02T12:29:16.038Z,18.40
2023-04-02T12:31:43.697Z,25.43
2023-04-02T12:34:13.827Z,17.13
2023-04-02T12:36:40.562Z,15.17
2023-04-02T12:39:13.484Z,18.87
2023-04-02T12:41:40.501Z,15.80
2023-04-02T12:44:12.098Z,14.03
2023-04-02T12:46:38.711Z,18.87
2023-04-02T12:49:23.067Z,18.47
2023-04-02T12:51:49.633Z,14.00
2023-04-02T12:54:17.623Z,17.63
2023-04-02T12:56:44.351Z,27.47
2023-04-02T12:59:30.184Z,15.47
2023-04-02T13:01:57.726Z,14.40
2023-04-02T13:04:24.432Z,19.13
2023-04-02T13:06:57.591Z,15.50
2023-04-02T13:09:38.914Z,15.97
2023-04-02T13:12:06.105Z,15.33
2023-04-02T13:14:32.668Z,20.87
2023-04-02T13:16:59.219Z,21.50
2023-04-02T13:19:26.978Z,20.67
2023-04-02T13:21:53.798Z,26.00
2023-04-02T13:24:21.532Z,20.87
2023-04-02T13:26:50.082Z,15.47
2023-04-02T13:29:22.876Z,18.07
2023-04-02T13:31:49.589Z,19.30
2023-04-02T13:34:16.928Z,22.13
2023-04-02T13:36:43.516Z,21.57
2023-04-02T13:39:10.060Z,20.73
2023-04-02T13:41:40.880Z,17.20
2023-04-02T13:44:07.371Z,20.47
2023-04-02T13:46:34.794Z,18.33
2023-04-02T13:49:01.334Z,14.33
2023-04-02T13:51:32.265Z,16.73
2023-04-02T13:53:58.755Z,15.90
2023-04-02T13:56:25.506Z,17.60
2023-04-02T13:58:52.804Z,15.07
2023-04-02T14:01:20.805Z,14.33
2023-04-02T14:03:47.387Z,18.63
2023-04-02T14:06:20.262Z,23.57
2023-04-02T14:08:46.731Z,19.60
2023-04-02T14:11:13.216Z,14.73
2023-04-02T14:13:46.713Z,17.87
2023-04-02T14:16:25.022Z,19.77
2023-04-02T14:19:03.811Z,16.57
2023-04-02T14:21:43.250Z,14.93
2023-04-02T14:24:17.470Z,13.33
2023-04-02T14:26:59.326Z,15.33
2023-04-02T14:29:35.195Z,12.43
2023-04-02T14:32:20.484Z,15.77
2023-04-02T14:34:59.095Z,15.47
2023-04-02T14:37:28.654Z,12.97
2023-04-02T14:40:17.244Z,15.27
2023-04-02T14:42:44.666Z,11.73
2023-04-02T14:45:11.151Z,14.50
2023-04-02T14:47:50.577Z,14.57
2023-04-02T14:50:17.714Z,12.23
2023-04-02T14:52:44.664Z,16.97
2023-04-02T14:55:13.658Z,14.97
2023-04-02T14:57:49.033Z,14.00
2023-04-02T15:00:27.523Z,11.23
2023-04-02T15:02:54.176Z,8.60
2023-04-02T15:05:33.224Z,21.60
2023-04-02T15:08:01.793Z,10.00
2023-04-02T15:10:28.791Z,13.90
2023-04-02T15:12:55.688Z,8.33
2023-04-02T15:15:41.727Z,13.73
2023-04-02T15:18:13.484Z,9.23
2023-04-02T15:21:01.842Z,14.40
2023-04-02T15:23:47.265Z,17.30
2023-04-02T15:26:18.191Z,19.37
2023-04-02T15:28:51.764Z,8.30
2023-04-02T15:31:18.573Z,9.43
2023-04-02T15:33:45.629Z,17.27
2023-04-02T15:36:31.581Z,6.60
2023-04-02T15:39:05.372Z,12.07
2023-04-02T15:41:33.255Z,7.90
2023-04-02T15:44:17.929Z,13.00
2023-04-02T15:46:58.257Z,9.43
2023-04-02T15:49:27.888Z,9.40
2023-04-02T15:52:14.710Z,6.47
2023-04-02T15:55:00.548Z,5.60
2023-04-02T15:57:36.611Z,6.20
2023-04-02T16:00:09.288Z,7.17
2023-04-02T16:02:41.195Z,13.00
2023-04-02T16:05:27.388Z,7.77
2023-04-02T16:08:03.817Z,2.87
2023-04-02T16:10:41.740Z,3.93
2023-04-02T16:13:12.104Z,3.67
2023-04-02T16:15:39.530Z,3.17
2023-04-02T16:18:14.328Z,6.77
2023-04-02T16:20:42.665Z,6.83
2023-04-02T16:23:12.144Z,6.00
2023-04-02T16:25:40.272Z,6.33
2023-04-02T16:28:28.468Z,10.33
2023-04-02T16:30:56.243Z,5.60
2023-04-02T16:33:22.839Z,4.33
2023-04-02T16:36:06.224Z,7.77
2023-04-02T16:38:32.699Z,8.60
2023-04-02T16:41:08.808Z,6.90
2023-04-02T16:43:54.690Z,6.47
2023-04-02T16:46:40.616Z,5.17
2023-04-02T16:49:19.489Z,6.63
2023-04-02T16:51:51.161Z,10.00
2023-04-02T16:54:43.790Z,8.07
2023-04-02T16:57:13.493Z,5.87
2023-04-02T16:59:40.151Z,6.37
2023-04-02T17:02:17.408Z,6.10
2023-04-02T17:05:07.910Z,5.50
2023-04-02T17:07:43.289Z,6.87
2023-04-02T17:10:19.100Z,6.47
2023-04-02T17:12:46.844Z,6.93
2023-04-02T17:15:26.728Z,8.10
2023-04-02T17:17:56.367Z,8.07
2023-04-02T17:20:23.700Z,8.20
2023-04-02T17:22:50.444Z,8.10
2023-04-02T17:25:27.289Z,8.60
2023-04-02T17:27:56.979Z,10.40
2023-04-02T17:30:38.103Z,12.13
2023-04-02T17:33:11.744Z,9.47
2023-04-02T17:35:45.914Z,10.60
2023-04-02T17:38:25.154Z,9.90
2023-04-02T17:41:03.723Z,8.40
2023-04-02T17:43:46.333Z,11.70
2023-04-02T17:46:31.382Z,12.97
2023-04-02T17:49:03.369Z,10.83
2023-04-02T17:51:35.486Z,15.20
2023-04-02T17:54:17.322Z,21.47
2023-04-02T17:56:43.804Z,19.67
2023-04-02T17:59:39.781Z,11.40
2023-04-02T18:02:41.995Z,9.17
2023-04-02T18:05:08.779Z,9.03
2023-04-02T18:07:40.897Z,12.33
2023-04-02T18:10:26.363Z,10.57
2023-04-02T18:12:57.457Z,13.63
2023-04-02T18:15:42.736Z,17.23
2023-04-02T18:18:28.400Z,13.13
2023-04-02T18:21:13.904Z,13.20
2023-04-02T18:23:40.525Z,13.53
2023-04-02T18:26:33.581Z,15.80
2023-04-02T18:29:15.793Z,16.67
2023-04-02T18:32:14.633Z,18.07
2023-04-02T18:34:50.578Z,12.20
2023-04-02T18:37:20.317Z,12.30
2023-04-02T18:39:51.193Z,12.37
2023-04-02T18:42:36.699Z,11.57
2023-04-02T18:45:38.941Z,10.03
2023-04-02T18:48:08.553Z,11.83
2023-04-02T18:50:36.640Z,11.47
2023-04-02T18:53:16.829Z,15.37
2023-04-02T18:55:46.113Z,14.67
2023-04-02T18:58:16.668Z,15.03
2023-04-02T19:00:43.611Z,12.53
2023-04-02T19:03:12.408Z,10.07
2023-04-02T19:05:40.847Z,11.97
2023-04-02T19:08:21.822Z,11.93
2023-04-02T19:10:50.833Z,11.13
2023-04-02T19:13:18.275Z,12.43
2023-04-02T19:16:03.671Z,14.97
2023-04-02T19:18:49.258Z,11.33
2023-04-02T19:21:15.864Z,10.73
2023-04-02T19:23:54.812Z,10.93
2023-04-02T19:26:23.100Z,12.67
2023-04-02T19:28:49.618Z,11.07
2023-04-02T19:31:23.357Z,9.60
2023-04-02T19:33:49.892Z,8.73
2023-04-02T19:36:19.724Z,11.43
2023-04-02T19:38:58.397Z,9.57
2023-04-02T19:41:37.085Z,12.17
2023-04-02T19:44:03.711Z,9.17
2023-04-02T19:46:30.356Z,9.13
2023-04-02T19:48:57.978Z,11.03
2023-04-02T19:51:24.566Z,10.30
2023-04-02T19:53:51.182Z,10.80
2023-04-02T19:56:17.725Z,16.00
2023-04-02T19:58:44.277Z,18.63
2023-04-02T20:01:11.027Z,18.63
2023-04-02T20:03:37.592Z,17.43
2023-04-02T20:06:04.355Z,13.13
2023-04-02T20:08:31.345Z,13.97
2023-04-02T20:11:01.239Z,12.30
2023-04-02T20:13:27.792Z,16.03
2023-04-02T20:15:54.734Z,8.73
2023-04-02T20:18:21.575Z,14.13
2023-04-02T20:20:48.582Z,6.77
2023-04-02T20:23:15.889Z,10.60
2023-04-02T20:25:46.528Z,6.70
2023-04-02T20:28:13.352Z,7.80
2023-04-02T20:30:39.939Z,7.23
2023-04-02T20:33:06.782Z,8.60
2023-04-02T20:35:34.703Z,9.57
2023-04-02T20:38:03.174Z,8.77
2023-04-02T20:40:29.764Z,12.20
2023-04-02T20:42:56.304Z,7.43
2023-04-02T20:45:22.980Z,7.60
2023-04-02T20:47:49.564Z,7.57
2023-04-02T20:50:16.660Z,6.63
2023-04-02T20:52:43.271Z,9.57
2023-04-02T20:55:09.896Z,10.07
2023-04-02T20:57:36.448Z,9.60
2023-04-02T21:00:05.829Z,11.30
2023-04-02T21:02:32.381Z,12.37
2023-04-02T21:04:59.319Z,14.53
2023-04-02T21:07:25.926Z,13.30
2023-04-02T21:09:52.414Z,14.13
2023-04-02T21:12:19.109Z,13.30
2023-04-02T21:14:45.705Z,9.80
2023-04-02T21:17:12.304Z,7.57
2023-04-02T21:19:38.811Z,7.33
2023-04-02T21:22:05.415Z,8.40
2023-04-02T21:24:31.945Z,9.37
2023-04-02T21:26:58.460Z,6.63
2023-04-02T21:29:25.020Z,9.37
2023-04-02T21:31:52.562Z,9.43
2023-04-02T21:34:19.471Z,8.10
2023-04-02T21:36:46.729Z,9.37
2023-04-02T21:39:17.058Z,9.97
2023-04-02T21:41:43.805Z,9.63
2023-04-02T21:44:12.562Z,7.57
2023-04-02T21:46:39.292Z,8.17
2023-04-02T21:49:06.222Z,7.47
2023-04-02T21:51:33.062Z,6.17
2023-04-02T21:53:59.744Z,6.97
2023-04-02T21:56:27.361Z,6.73
2023-04-02T21:58:55.310Z,4.07
2023-04-02T22:01:27.217Z,4.27
2023-04-02T22:03:55.549Z,4.43
2023-04-02T22:06:22.370Z,4.90
2023-04-02T22:08:53.146Z,4.10
2023-04-02T22:11:20.996Z,4.20
2023-04-02T22:13:47.696Z,4.00
2023-04-02T22:16:15.297Z,4.03
2023-04-02T22:18:41.992Z,3.07
2023-04-02T22:21:08.625Z,3.60
2023-04-02T22:23:35.633Z,3.23
2023-04-02T22:26:02.288Z,4.63
2023-04-02T22:28:28.852Z,5.20
2023-04-02T22:30:55.806Z,4.23
2023-04-02T22:33:22.427Z,3.70
2023-04-02T22:35:49.901Z,5.83
2023-04-02T22:38:16.472Z,6.43
2023-04-02T22:40:42.959Z,7.83
2023-04-02T22:43:09.490Z,5.43
2023-04-02T22:45:36.356Z,6.33
2023-04-02T22:48:02.932Z,6.63
2023-04-02T22:50:29.512Z,6.10
2023-04-02T22:52:56.043Z,5.87
2023-04-02T22:55:22.686Z,6.03
2023-04-02T22:57:49.166Z,7.00
2023-04-02T23:00:16.265Z,8.33
2023-04-02T23:02:42.762Z,7.70
2023-04-02T23:05:10.832Z,8.30
2023-04-02T23:07:37.381Z,7.47
2023-04-02T23:10:05.809Z,10.17
2023-04-02T23:12:32.463Z,9.17
2023-04-02T23:14:59.460Z,8.30
2023-04-02T23:17:25.944Z,8.33
2023-04-02T23:19:52.463Z,7.57
2023-04-02T23:22:18.966Z,9.73
2023-04-02T23:24:45.466Z,7.83
2023-04-02T23:27:12.186Z,7.40
2023-04-02T23:29:38.679Z,8.37
2023-04-02T23:32:06.787Z,7.47
2023-04-02T23:34:33.319Z,5.27
2023-04-02T23:36:59.895Z,5.27
2023-04-02T23:39:26.423Z,5.53
2023-04-02T23:41:53.002Z,5.17
2023-04-02T23:44:19.501Z,4.70
2023-04-02T23:46:46.130Z,4.03
2023-04-02T23:49:13.143Z,4.97
2023-04-02T23:51:40.810Z,6.33
2023-04-02T23:54:07.545Z,6.70
2023-04-02T23:56:34.122Z,4.60
2023-04-02T23:59:00.774Z,4.87
